sensor_id;sensor_type;location;lat;lon;timestamp;P1;durP1;ratioP1;P2;durP2;ratioP2
12348;SDS011;5974;42.710;27.258;2023-08-01T00:00:28;7.67;;;6.90;;
12348;SDS011;5974;42.710;27.258;2023-08-01T00:02:55;8.03;;;7.53;;
12348;SDS011;5974;42.710;27.258;2023-08-01T00:05:21;8.27;;;7.47;;
12348;SDS011;5974;42.710;27.258;2023-08-01T00:07:50;7.70;;;7.10;;
12348;SDS011;5974;42.710;27.258;2023-08-01T00:10:18;7.23;;;6.73;;
12348;SDS011;5974;42.710;27.258;2023-08-01T00:12:45;6.93;;;6.43;;
12348;SDS011;5974;42.710;27.258;2023-08-01T00:15:12;6.87;;;6.37;;
12348;SDS011;5974;42.710;27.258;2023-08-01T00:17:39;7.07;;;6.60;;
12348;SDS011;5974;42.710;27.258;2023-08-01T00:20:06;6.10;;;5.70;;
12348;SDS011;5974;42.710;27.258;2023-08-01T00:22:33;7.03;;;6.63;;
12348;SDS011;5974;42.710;27.258;2023-08-01T00:25:02;7.13;;;6.63;;
12348;SDS011;5974;42.710;27.258;2023-08-01T00:27:29;7.43;;;6.83;;
12348;SDS011;5974;42.710;27.258;2023-08-01T00:29:57;8.20;;;7.47;;
12348;SDS011;5974;42.710;27.258;2023-08-01T00:32:24;8.00;;;7.40;;
12348;SDS011;5974;42.710;27.258;2023-08-01T00:34:51;7.93;;;7.17;;
12348;SDS011;5974;42.710;27.258;2023-08-01T00:37:17;7.83;;;7.13;;
12348;SDS011;5974;42.710;27.258;2023-08-01T00:39:44;7.63;;;7.03;;
12348;SDS011;5974;42.710;27.258;2023-08-01T00:42:12;7.30;;;6.73;;
12348;SDS011;5974;42.710;27.258;2023-08-01T00:44:39;7.50;;;7.00;;
12348;SDS011;5974;42.710;27.258;2023-08-01T00:47:06;7.17;;;6.67;;
12348;SDS011;5974;42.710;27.258;2023-08-01T00:49:33;7.40;;;6.80;;
12348;SDS011;5974;42.710;27.258;2023-08-01T00:52:00;7.73;;;7.17;;
12348;SDS011;5974;42.710;27.258;2023-08-01T00:54:28;8.03;;;7.43;;
12348;SDS011;5974;42.710;27.258;2023-08-01T00:57:00;7.63;;;7.13;;
12348;SDS011;5974;42.710;27.258;2023-08-01T00:59:29;8.00;;;7.40;;
12348;SDS011;5974;42.710;27.258;2023-08-01T01:01:56;7.40;;;6.90;;
12348;SDS011;5974;42.710;27.258;2023-08-01T01:04:23;7.43;;;6.90;;
12348;SDS011;5974;42.710;27.258;2023-08-01T01:06:51;7.60;;;7.03;;
12348;SDS011;5974;42.710;27.258;2023-08-01T01:09:23;7.00;;;6.50;;
12348;SDS011;5974;42.710;27.258;2023-08-01T01:11:50;7.23;;;6.73;;
12348;SDS011;5974;42.710;27.258;2023-08-01T01:14:17;7.40;;;6.90;;
12348;SDS011;5974;42.710;27.258;2023-08-01T01:16:45;7.30;;;6.70;;
12348;SDS011;5974;42.710;27.258;2023-08-01T01:19:12;7.20;;;6.67;;
12348;SDS011;5974;42.710;27.258;2023-08-01T01:21:40;7.87;;;7.17;;
12348;SDS011;5974;42.710;27.258;2023-08-01T01:24:10;7.27;;;6.77;;
12348;SDS011;5974;42.710;27.258;2023-08-01T01:26:39;7.53;;;6.93;;
12348;SDS011;5974;42.710;27.258;2023-08-01T01:29:07;7.40;;;6.90;;
12348;SDS011;5974;42.710;27.258;2023-08-01T01:31:35;7.50;;;6.90;;
12348;SDS011;5974;42.710;27.258;2023-08-01T01:34:03;7.23;;;6.73;;
12348;SDS011;5974;42.710;27.258;2023-08-01T01:36:30;7.97;;;7.37;;
12348;SDS011;5974;42.710;27.258;2023-08-01T01:38:58;7.67;;;7.07;;
12348;SDS011;5974;42.710;27.258;2023-08-01T01:41:25;7.83;;;7.23;;
12348;SDS011;5974;42.710;27.258;2023-08-01T01:43:52;8.23;;;7.63;;
12348;SDS011;5974;42.710;27.258;2023-08-01T01:46:19;8.07;;;7.47;;
12348;SDS011;5974;42.710;27.258;2023-08-01T01:48:46;8.27;;;7.67;;
12348;SDS011;5974;42.710;27.258;2023-08-01T01:51:13;8.87;;;8.17;;
12348;SDS011;5974;42.710;27.258;2023-08-01T01:53:40;7.93;;;7.33;;
12348;SDS011;5974;42.710;27.258;2023-08-01T01:56:08;8.40;;;7.80;;
12348;SDS011;5974;42.710;27.258;2023-08-01T01:58:35;8.87;;;8.27;;
12348;SDS011;5974;42.710;27.258;2023-08-01T02:01:02;8.53;;;7.83;;
12348;SDS011;5974;42.710;27.258;2023-08-01T02:03:29;8.90;;;8.20;;
12348;SDS011;5974;42.710;27.258;2023-08-01T02:05:56;8.63;;;7.83;;
12348;SDS011;5974;42.710;27.258;2023-08-01T02:08:23;11.43;;;8.80;;
12348;SDS011;5974;42.710;27.258;2023-08-01T02:10:50;8.93;;;8.23;;
12348;SDS011;5974;42.710;27.258;2023-08-01T02:13:18;9.47;;;8.77;;
12348;SDS011;5974;42.710;27.258;2023-08-01T02:15:45;9.63;;;8.83;;
12348;SDS011;5974;42.710;27.258;2023-08-01T02:18:12;9.43;;;8.63;;
12348;SDS011;5974;42.710;27.258;2023-08-01T02:20:38;9.43;;;8.63;;
12348;SDS011;5974;42.710;27.258;2023-08-01T02:23:05;9.60;;;8.80;;
12348;SDS011;5974;42.710;27.258;2023-08-01T02:25:34;9.80;;;9.00;;
12348;SDS011;5974;42.710;27.258;2023-08-01T02:28:04;11.23;;;10.23;;
12348;SDS011;5974;42.710;27.258;2023-08-01T02:30:33;10.53;;;9.70;;
12348;SDS011;5974;42.710;27.258;2023-08-01T02:33:00;10.90;;;10.03;;
12348;SDS011;5974;42.710;27.258;2023-08-01T02:35:27;10.77;;;9.83;;
12348;SDS011;5974;42.710;27.258;2023-08-01T02:37:54;10.60;;;9.63;;
12348;SDS011;5974;42.710;27.258;2023-08-01T02:40:21;11.20;;;10.30;;
12348;SDS011;5974;42.710;27.258;2023-08-01T02:42:48;11.30;;;10.40;;
12348;SDS011;5974;42.710;27.258;2023-08-01T02:45:15;12.43;;;11.30;;
12348;SDS011;5974;42.710;27.258;2023-08-01T02:47:44;11.33;;;10.43;;
12348;SDS011;5974;42.710;27.258;2023-08-01T02:50:10;12.53;;;10.77;;
12348;SDS011;5974;42.710;27.258;2023-08-01T02:52:37;11.77;;;10.80;;
12348;SDS011;5974;42.710;27.258;2023-08-01T02:55:05;12.10;;;11.10;;
12348;SDS011;5974;42.710;27.258;2023-08-01T02:57:32;12.00;;;11.00;;
12348;SDS011;5974;42.710;27.258;2023-08-01T02:59:59;11.97;;;11.03;;
12348;SDS011;5974;42.710;27.258;2023-08-01T03:02:30;12.03;;;11.03;;
12348;SDS011;5974;42.710;27.258;2023-08-01T03:04:58;11.40;;;10.50;;
12348;SDS011;5974;42.710;27.258;2023-08-01T03:07:25;11.97;;;10.87;;
12348;SDS011;5974;42.710;27.258;2023-08-01T03:09:51;12.40;;;11.40;;
12348;SDS011;5974;42.710;27.258;2023-08-01T03:12:18;10.73;;;9.73;;
12348;SDS011;5974;42.710;27.258;2023-08-01T03:14:45;11.00;;;10.13;;
12348;SDS011;5974;42.710;27.258;2023-08-01T03:17:12;11.17;;;10.30;;
12348;SDS011;5974;42.710;27.258;2023-08-01T03:19:39;11.10;;;10.20;;
12348;SDS011;5974;42.710;27.258;2023-08-01T03:22:07;10.23;;;9.47;;
12348;SDS011;5974;42.710;27.258;2023-08-01T03:24:35;10.33;;;9.53;;
12348;SDS011;5974;42.710;27.258;2023-08-01T03:27:03;11.20;;;10.20;;
12348;SDS011;5974;42.710;27.258;2023-08-01T03:29:30;9.93;;;9.13;;
12348;SDS011;5974;42.710;27.258;2023-08-01T03:31:57;9.97;;;9.17;;
12348;SDS011;5974;42.710;27.258;2023-08-01T03:34:24;9.97;;;9.17;;
12348;SDS011;5974;42.710;27.258;2023-08-01T03:36:52;10.30;;;9.47;;
12348;SDS011;5974;42.710;27.258;2023-08-01T03:39:20;10.23;;;9.23;;
12348;SDS011;5974;42.710;27.258;2023-08-01T03:41:47;10.43;;;9.63;;
12348;SDS011;5974;42.710;27.258;2023-08-01T03:44:14;10.10;;;9.17;;
12348;SDS011;5974;42.710;27.258;2023-08-01T03:46:42;10.67;;;9.60;;
12348;SDS011;5974;42.710;27.258;2023-08-01T03:49:09;10.67;;;9.67;;
12348;SDS011;5974;42.710;27.258;2023-08-01T03:51:35;13.83;;;9.80;;
12348;SDS011;5974;42.710;27.258;2023-08-01T03:54:02;10.60;;;9.80;;
12348;SDS011;5974;42.710;27.258;2023-08-01T03:56:31;10.13;;;9.20;;
12348;SDS011;5974;42.710;27.258;2023-08-01T03:58:57;10.13;;;9.23;;
12348;SDS011;5974;42.710;27.258;2023-08-01T04:01:24;12.97;;;9.80;;
12348;SDS011;5974;42.710;27.258;2023-08-01T04:03:51;11.27;;;10.23;;
12348;SDS011;5974;42.710;27.258;2023-08-01T04:06:18;10.00;;;9.07;;
12348;SDS011;5974;42.710;27.258;2023-08-01T04:08:45;10.33;;;9.40;;
12348;SDS011;5974;42.710;27.258;2023-08-01T04:11:12;11.90;;;9.57;;
12348;SDS011;5974;42.710;27.258;2023-08-01T04:13:40;9.93;;;9.03;;
12348;SDS011;5974;42.710;27.258;2023-08-01T04:16:07;9.80;;;9.10;;
12348;SDS011;5974;42.710;27.258;2023-08-01T04:18:33;9.93;;;8.93;;
12348;SDS011;5974;42.710;27.258;2023-08-01T04:21:01;9.37;;;8.60;;
12348;SDS011;5974;42.710;27.258;2023-08-01T04:23:28;8.10;;;7.37;;
12348;SDS011;5974;42.710;27.258;2023-08-01T04:25:55;8.70;;;7.87;;
12348;SDS011;5974;42.710;27.258;2023-08-01T04:28:23;8.47;;;7.40;;
12348;SDS011;5974;42.710;27.258;2023-08-01T04:30:51;8.53;;;7.00;;
12348;SDS011;5974;42.710;27.258;2023-08-01T04:33:18;11.40;;;6.40;;
12348;SDS011;5974;42.710;27.258;2023-08-01T04:35:45;6.63;;;6.10;;
12348;SDS011;5974;42.710;27.258;2023-08-01T04:38:14;6.93;;;6.32;;
12348;SDS011;5974;42.710;27.258;2023-08-01T04:40:41;6.53;;;6.03;;
12348;SDS011;5974;42.710;27.258;2023-08-01T04:43:08;6.65;;;5.90;;
12348;SDS011;5974;42.710;27.258;2023-08-01T04:45:36;6.50;;;6.03;;
12348;SDS011;5974;42.710;27.258;2023-08-01T04:48:04;6.10;;;5.70;;
12348;SDS011;5974;42.710;27.258;2023-08-01T04:50:31;6.15;;;5.68;;
12348;SDS011;5974;42.710;27.258;2023-08-01T04:52:58;6.13;;;5.53;;
12348;SDS011;5974;42.710;27.258;2023-08-01T04:55:25;6.18;;;5.70;;
12348;SDS011;5974;42.710;27.258;2023-08-01T04:57:51;5.50;;;5.00;;
12348;SDS011;5974;42.710;27.258;2023-08-01T05:00:18;5.88;;;5.38;;
12348;SDS011;5974;42.710;27.258;2023-08-01T05:02:45;6.07;;;5.57;;
12348;SDS011;5974;42.710;27.258;2023-08-01T05:05:13;5.88;;;5.47;;
12348;SDS011;5974;42.710;27.258;2023-08-01T05:07:41;5.40;;;5.03;;
12348;SDS011;5974;42.710;27.258;2023-08-01T05:10:08;5.70;;;5.40;;
12348;SDS011;5974;42.710;27.258;2023-08-01T05:12:36;6.20;;;5.80;;
12348;SDS011;5974;42.710;27.258;2023-08-01T05:15:03;6.13;;;5.68;;
12348;SDS011;5974;42.710;27.258;2023-08-01T05:17:30;5.55;;;5.20;;
12348;SDS011;5974;42.710;27.258;2023-08-01T05:19:57;6.07;;;5.50;;
12348;SDS011;5974;42.710;27.258;2023-08-01T05:22:25;5.47;;;5.07;;
12348;SDS011;5974;42.710;27.258;2023-08-01T05:24:52;5.47;;;5.18;;
12348;SDS011;5974;42.710;27.258;2023-08-01T05:27:19;5.32;;;5.03;;
12348;SDS011;5974;42.710;27.258;2023-08-01T05:29:46;5.57;;;5.28;;
12348;SDS011;5974;42.710;27.258;2023-08-01T05:32:13;5.80;;;5.20;;
12348;SDS011;5974;42.710;27.258;2023-08-01T05:34:40;5.70;;;5.30;;
12348;SDS011;5974;42.710;27.258;2023-08-01T05:37:06;5.85;;;5.35;;
12348;SDS011;5974;42.710;27.258;2023-08-01T05:39:35;5.03;;;4.72;;
12348;SDS011;5974;42.710;27.258;2023-08-01T05:42:02;5.03;;;4.72;;
12348;SDS011;5974;42.710;27.258;2023-08-01T05:44:33;5.30;;;4.90;;
12348;SDS011;5974;42.710;27.258;2023-08-01T05:47:00;5.75;;;5.38;;
12348;SDS011;5974;42.710;27.258;2023-08-01T05:49:27;5.20;;;4.90;;
12348;SDS011;5974;42.710;27.258;2023-08-01T05:51:54;4.78;;;4.47;;
12348;SDS011;5974;42.710;27.258;2023-08-01T05:54:21;5.20;;;4.90;;
12348;SDS011;5974;42.710;27.258;2023-08-01T05:56:50;5.53;;;5.13;;
12348;SDS011;5974;42.710;27.258;2023-08-01T05:59:16;5.90;;;5.32;;
12348;SDS011;5974;42.710;27.258;2023-08-01T06:01:44;4.80;;;4.40;;
12348;SDS011;5974;42.710;27.258;2023-08-01T06:04:11;5.07;;;4.78;;
12348;SDS011;5974;42.710;27.258;2023-08-01T06:06:38;4.90;;;4.57;;
12348;SDS011;5974;42.710;27.258;2023-08-01T06:09:05;4.78;;;4.38;;
12348;SDS011;5974;42.710;27.258;2023-08-01T06:11:32;4.45;;;4.25;;
12348;SDS011;5974;42.710;27.258;2023-08-01T06:14:01;4.53;;;4.22;;
12348;SDS011;5974;42.710;27.258;2023-08-01T06:16:28;4.43;;;4.13;;
12348;SDS011;5974;42.710;27.258;2023-08-01T06:18:55;4.55;;;4.25;;
12348;SDS011;5974;42.710;27.258;2023-08-01T06:21:22;3.90;;;3.60;;
12348;SDS011;5974;42.710;27.258;2023-08-01T06:23:49;4.03;;;3.72;;
12348;SDS011;5974;42.710;27.258;2023-08-01T06:26:16;3.90;;;3.60;;
12348;SDS011;5974;42.710;27.258;2023-08-01T06:28:43;3.83;;;3.50;;
12348;SDS011;5974;42.710;27.258;2023-08-01T06:31:11;4.00;;;3.80;;
12348;SDS011;5974;42.710;27.258;2023-08-01T06:33:38;4.00;;;3.80;;
12348;SDS011;5974;42.710;27.258;2023-08-01T06:36:05;4.78;;;3.85;;
12348;SDS011;5974;42.710;27.258;2023-08-01T06:38:32;6.50;;;5.15;;
12348;SDS011;5974;42.710;27.258;2023-08-01T06:40:59;3.97;;;3.30;;
12348;SDS011;5974;42.710;27.258;2023-08-01T06:43:26;3.60;;;3.30;;
12348;SDS011;5974;42.710;27.258;2023-08-01T06:45:53;3.70;;;3.50;;
12348;SDS011;5974;42.710;27.258;2023-08-01T06:48:21;3.72;;;3.50;;
12348;SDS011;5974;42.710;27.258;2023-08-01T06:50:48;3.63;;;3.30;;
12348;SDS011;5974;42.710;27.258;2023-08-01T06:53:14;3.60;;;3.30;;
12348;SDS011;5974;42.710;27.258;2023-08-01T06:55:42;3.42;;;3.05;;
12348;SDS011;5974;42.710;27.258;2023-08-01T06:58:09;3.78;;;3.58;;
12348;SDS011;5974;42.710;27.258;2023-08-01T07:00:35;3.40;;;3.10;;
12348;SDS011;5974;42.710;27.258;2023-08-01T07:03:02;3.50;;;3.20;;
12348;SDS011;5974;42.710;27.258;2023-08-01T07:05:31;3.60;;;3.40;;
12348;SDS011;5974;42.710;27.258;2023-08-01T07:07:57;3.83;;;3.15;;
12348;SDS011;5974;42.710;27.258;2023-08-01T07:10:24;3.13;;;2.92;;
12348;SDS011;5974;42.710;27.258;2023-08-01T07:12:51;3.53;;;3.22;;
12348;SDS011;5974;42.710;27.258;2023-08-01T07:15:18;2.60;;;2.50;;
12348;SDS011;5974;42.710;27.258;2023-08-01T07:17:45;3.00;;;2.80;;
12348;SDS011;5974;42.710;27.258;2023-08-01T07:20:12;3.33;;;3.13;;
12348;SDS011;5974;42.710;27.258;2023-08-01T07:22:40;3.40;;;3.20;;
12348;SDS011;5974;42.710;27.258;2023-08-01T07:25:07;3.45;;;3.13;;
12348;SDS011;5974;42.710;27.258;2023-08-01T07:27:34;3.20;;;3.00;;
12348;SDS011;5974;42.710;27.258;2023-08-01T07:30:03;2.90;;;2.80;;
12348;SDS011;5974;42.710;27.258;2023-08-01T07:32:30;3.28;;;3.08;;
12348;SDS011;5974;42.710;27.258;2023-08-01T07:34:57;2.88;;;2.67;;
12348;SDS011;5974;42.710;27.258;2023-08-01T07:37:24;3.30;;;3.10;;
12348;SDS011;5974;42.710;27.258;2023-08-01T07:39:55;3.08;;;2.88;;
12348;SDS011;5974;42.710;27.258;2023-08-01T07:42:21;2.80;;;2.67;;
12348;SDS011;5974;42.710;27.258;2023-08-01T07:44:48;3.40;;;3.10;;
12348;SDS011;5974;42.710;27.258;2023-08-01T07:47:15;2.80;;;2.67;;
12348;SDS011;5974;42.710;27.258;2023-08-01T07:49:42;2.60;;;2.50;;
12348;SDS011;5974;42.710;27.258;2023-08-01T07:52:09;3.10;;;2.90;;
12348;SDS011;5974;42.710;27.258;2023-08-01T07:54:36;4.60;;;3.00;;
12348;SDS011;5974;42.710;27.258;2023-08-01T07:57:05;2.80;;;2.70;;
12348;SDS011;5974;42.710;27.258;2023-08-01T07:59:32;2.67;;;2.58;;
12348;SDS011;5974;42.710;27.258;2023-08-01T08:01:59;2.97;;;2.53;;
12348;SDS011;5974;42.710;27.258;2023-08-01T08:04:26;2.65;;;2.55;;
12348;SDS011;5974;42.710;27.258;2023-08-01T08:06:53;2.80;;;2.60;;
12348;SDS011;5974;42.710;27.258;2023-08-01T08:09:20;3.17;;;2.90;;
12348;SDS011;5974;42.710;27.258;2023-08-01T08:11:47;2.90;;;2.78;;
12348;SDS011;5974;42.710;27.258;2023-08-01T08:14:16;3.10;;;2.80;;
12348;SDS011;5974;42.710;27.258;2023-08-01T08:16:45;2.85;;;2.72;;
12348;SDS011;5974;42.710;27.258;2023-08-01T08:19:12;3.58;;;2.88;;
12348;SDS011;5974;42.710;27.258;2023-08-01T08:21:39;3.10;;;2.90;;
12348;SDS011;5974;42.710;27.258;2023-08-01T08:24:06;2.70;;;2.60;;
12348;SDS011;5974;42.710;27.258;2023-08-01T08:26:33;3.43;;;3.00;;
12348;SDS011;5974;42.710;27.258;2023-08-01T08:29:02;3.87;;;3.17;;
12348;SDS011;5974;42.710;27.258;2023-08-01T08:31:31;3.00;;;2.73;;
12348;SDS011;5974;42.710;27.258;2023-08-01T08:33:58;3.27;;;2.80;;
12348;SDS011;5974;42.710;27.258;2023-08-01T08:36:25;3.17;;;2.97;;
12348;SDS011;5974;42.710;27.258;2023-08-01T08:38:52;3.03;;;2.87;;
12348;SDS011;5974;42.710;27.258;2023-08-01T08:41:20;3.20;;;2.90;;
12348;SDS011;5974;42.710;27.258;2023-08-01T08:43:48;3.00;;;2.80;;
12348;SDS011;5974;42.710;27.258;2023-08-01T08:46:16;3.13;;;2.93;;
12348;SDS011;5974;42.710;27.258;2023-08-01T08:48:44;3.40;;;3.20;;
12348;SDS011;5974;42.710;27.258;2023-08-01T08:51:12;3.30;;;3.00;;
12348;SDS011;5974;42.710;27.258;2023-08-01T08:53:40;3.00;;;2.80;;
12348;SDS011;5974;42.710;27.258;2023-08-01T08:56:08;3.00;;;2.80;;
12348;SDS011;5974;42.710;27.258;2023-08-01T08:58:35;2.70;;;2.60;;
12348;SDS011;5974;42.710;27.258;2023-08-01T09:01:04;2.80;;;2.70;;
12348;SDS011;5974;42.710;27.258;2023-08-01T09:03:32;2.50;;;2.30;;
12348;SDS011;5974;42.710;27.258;2023-08-01T09:06:02;2.00;;;1.90;;
12348;SDS011;5974;42.710;27.258;2023-08-01T09:08:35;2.20;;;2.10;;
12348;SDS011;5974;42.710;27.258;2023-08-01T09:11:05;2.10;;;2.00;;
12348;SDS011;5974;42.710;27.258;2023-08-01T09:13:32;1.70;;;1.60;;
12348;SDS011;5974;42.710;27.258;2023-08-01T09:16:01;1.60;;;1.50;;
12348;SDS011;5974;42.710;27.258;2023-08-01T09:18:28;1.77;;;1.67;;
12348;SDS011;5974;42.710;27.258;2023-08-01T09:20:55;2.42;;;2.03;;
12348;SDS011;5974;42.710;27.258;2023-08-01T09:23:28;2.10;;;2.00;;
12348;SDS011;5974;42.710;27.258;2023-08-01T09:25:55;2.30;;;2.20;;
12348;SDS011;5974;42.710;27.258;2023-08-01T09:28:22;3.42;;;2.72;;
12348;SDS011;5974;42.710;27.258;2023-08-01T09:30:52;3.40;;;2.80;;
12348;SDS011;5974;42.710;27.258;2023-08-01T09:33:20;3.05;;;2.85;;
12348;SDS011;5974;42.710;27.258;2023-08-01T09:35:48;2.35;;;2.25;;
12348;SDS011;5974;42.710;27.258;2023-08-01T09:38:16;2.58;;;2.47;;
12348;SDS011;5974;42.710;27.258;2023-08-01T09:40:44;2.40;;;2.30;;
12348;SDS011;5974;42.710;27.258;2023-08-01T09:43:12;3.00;;;2.55;;
12348;SDS011;5974;42.710;27.258;2023-08-01T09:45:49;2.10;;;2.00;;
12348;SDS011;5974;42.710;27.258;2023-08-01T09:48:21;2.45;;;2.25;;
12348;SDS011;5974;42.710;27.258;2023-08-01T09:50:52;2.53;;;2.42;;
12348;SDS011;5974;42.710;27.258;2023-08-01T09:53:19;3.15;;;2.95;;
12348;SDS011;5974;42.710;27.258;2023-08-01T09:55:47;5.13;;;3.10;;
12348;SDS011;5974;42.710;27.258;2023-08-01T09:58:17;3.80;;;3.15;;
12348;SDS011;5974;42.710;27.258;2023-08-01T10:00:48;2.90;;;2.70;;
12348;SDS011;5974;42.710;27.258;2023-08-01T10:03:16;3.50;;;2.97;;
12348;SDS011;5974;42.710;27.258;2023-08-01T10:05:43;2.97;;;2.67;;
12348;SDS011;5974;42.710;27.258;2023-08-01T10:08:11;2.80;;;2.60;;
12348;SDS011;5974;42.710;27.258;2023-08-01T10:10:40;2.67;;;2.50;;
12348;SDS011;5974;42.710;27.258;2023-08-01T10:13:09;2.83;;;2.47;;
12348;SDS011;5974;42.710;27.258;2023-08-01T10:15:40;2.70;;;2.50;;
12348;SDS011;5974;42.710;27.258;2023-08-01T10:18:07;3.03;;;2.65;;
12348;SDS011;5974;42.710;27.258;2023-08-01T10:20:35;2.65;;;2.55;;
12348;SDS011;5974;42.710;27.258;2023-08-01T10:23:03;2.90;;;2.70;;
12348;SDS011;5974;42.710;27.258;2023-08-01T10:25:32;2.85;;;2.70;;
12348;SDS011;5974;42.710;27.258;2023-08-01T10:27:59;2.75;;;2.65;;
12348;SDS011;5974;42.710;27.258;2023-08-01T10:30:28;3.10;;;2.90;;
12348;SDS011;5974;42.710;27.258;2023-08-01T10:32:56;3.10;;;3.00;;
12348;SDS011;5974;42.710;27.258;2023-08-01T10:35:31;2.80;;;2.70;;
12348;SDS011;5974;42.710;27.258;2023-08-01T10:38:05;3.10;;;2.90;;
12348;SDS011;5974;42.710;27.258;2023-08-01T10:40:33;3.10;;;2.90;;
12348;SDS011;5974;42.710;27.258;2023-08-01T10:43:00;3.42;;;2.80;;
12348;SDS011;5974;42.710;27.258;2023-08-01T10:45:29;3.20;;;2.78;;
12348;SDS011;5974;42.710;27.258;2023-08-01T10:48:06;2.75;;;2.60;;
12348;SDS011;5974;42.710;27.258;2023-08-01T10:50:34;2.70;;;2.60;;
12348;SDS011;5974;42.710;27.258;2023-08-01T10:53:04;3.00;;;2.90;;
12348;SDS011;5974;42.710;27.258;2023-08-01T10:55:40;2.60;;;2.50;;
12348;SDS011;5974;42.710;27.258;2023-08-01T10:58:08;2.90;;;2.70;;
12348;SDS011;5974;42.710;27.258;2023-08-01T11:00:36;3.03;;;2.83;;
12348;SDS011;5974;42.710;27.258;2023-08-01T11:03:03;4.35;;;2.80;;
12348;SDS011;5974;42.710;27.258;2023-08-01T11:05:30;3.03;;;2.83;;
12348;SDS011;5974;42.710;27.258;2023-08-01T11:07:57;4.25;;;2.70;;
12348;SDS011;5974;42.710;27.258;2023-08-01T11:10:26;3.10;;;2.80;;
12348;SDS011;5974;42.710;27.258;2023-08-01T11:12:53;2.65;;;2.55;;
12348;SDS011;5974;42.710;27.258;2023-08-01T11:15:21;3.38;;;3.08;;
12348;SDS011;5974;42.710;27.258;2023-08-01T11:17:50;2.50;;;2.40;;
12348;SDS011;5974;42.710;27.258;2023-08-01T11:20:19;2.40;;;2.30;;
12348;SDS011;5974;42.710;27.258;2023-08-01T11:22:51;2.85;;;2.60;;
12348;SDS011;5974;42.710;27.258;2023-08-01T11:25:31;3.00;;;2.80;;
12348;SDS011;5974;42.710;27.258;2023-08-01T11:28:01;4.85;;;2.75;;
12348;SDS011;5974;42.710;27.258;2023-08-01T11:30:30;2.88;;;2.60;;
12348;SDS011;5974;42.710;27.258;2023-08-01T11:32:59;2.72;;;2.60;;
12348;SDS011;5974;42.710;27.258;2023-08-01T11:35:28;2.70;;;2.50;;
12348;SDS011;5974;42.710;27.258;2023-08-01T11:37:55;2.63;;;2.50;;
12348;SDS011;5974;42.710;27.258;2023-08-01T11:40:23;2.53;;;2.42;;
12348;SDS011;5974;42.710;27.258;2023-08-01T11:42:51;2.85;;;2.67;;
12348;SDS011;5974;42.710;27.258;2023-08-01T11:45:23;3.45;;;2.83;;
12348;SDS011;5974;42.710;27.258;2023-08-01T11:47:50;3.65;;;2.95;;
12348;SDS011;5974;42.710;27.258;2023-08-01T11:50:21;2.92;;;2.72;;
12348;SDS011;5974;42.710;27.258;2023-08-01T11:52:49;2.85;;;2.75;;
12348;SDS011;5974;42.710;27.258;2023-08-01T11:55:23;2.83;;;2.72;;
12348;SDS011;5974;42.710;27.258;2023-08-01T11:57:55;3.05;;;2.58;;
12348;SDS011;5974;42.710;27.258;2023-08-01T12:00:24;2.97;;;2.67;;
12348;SDS011;5974;42.710;27.258;2023-08-01T12:02:52;2.80;;;2.60;;
12348;SDS011;5974;42.710;27.258;2023-08-01T12:05:31;3.03;;;2.83;;
12348;SDS011;5974;42.710;27.258;2023-08-01T12:08:07;2.70;;;2.60;;
12348;SDS011;5974;42.710;27.258;2023-08-01T12:10:37;2.50;;;2.40;;
12348;SDS011;5974;42.710;27.258;2023-08-01T12:13:05;2.65;;;2.55;;
12348;SDS011;5974;42.710;27.258;2023-08-01T12:15:32;2.72;;;2.53;;
12348;SDS011;5974;42.710;27.258;2023-08-01T12:17:59;2.58;;;2.42;;
12348;SDS011;5974;42.710;27.258;2023-08-01T12:20:25;2.67;;;2.47;;
12348;SDS011;5974;42.710;27.258;2023-08-01T12:22:54;3.00;;;2.80;;
12348;SDS011;5974;42.710;27.258;2023-08-01T12:25:20;5.97;;;3.40;;
12348;SDS011;5974;42.710;27.258;2023-08-01T12:27:47;5.07;;;3.45;;
12348;SDS011;5974;42.710;27.258;2023-08-01T12:30:14;3.25;;;3.05;;
12348;SDS011;5974;42.710;27.258;2023-08-01T12:32:41;3.50;;;3.30;;
12348;SDS011;5974;42.710;27.258;2023-08-01T12:35:08;4.28;;;3.83;;
12348;SDS011;5974;42.710;27.258;2023-08-01T12:37:35;3.90;;;3.30;;
12348;SDS011;5974;42.710;27.258;2023-08-01T12:40:04;3.85;;;3.40;;
12348;SDS011;5974;42.710;27.258;2023-08-01T12:42:32;4.27;;;3.40;;
12348;SDS011;5974;42.710;27.258;2023-08-01T12:44:59;3.47;;;3.17;;
12348;SDS011;5974;42.710;27.258;2023-08-01T12:47:26;4.03;;;3.63;;
12348;SDS011;5974;42.710;27.258;2023-08-01T12:49:53;3.30;;;3.07;;
12348;SDS011;5974;42.710;27.258;2023-08-01T12:52:23;3.90;;;3.60;;
12348;SDS011;5974;42.710;27.258;2023-08-01T12:54:51;3.80;;;3.60;;
12348;SDS011;5974;42.710;27.258;2023-08-01T12:57:19;4.93;;;3.50;;
12348;SDS011;5974;42.710;27.258;2023-08-01T12:59:46;3.83;;;3.53;;
12348;SDS011;5974;42.710;27.258;2023-08-01T13:02:13;4.70;;;3.35;;
12348;SDS011;5974;42.710;27.258;2023-08-01T13:04:40;3.77;;;3.50;;
12348;SDS011;5974;42.710;27.258;2023-08-01T13:07:07;3.73;;;3.43;;
12348;SDS011;5974;42.710;27.258;2023-08-01T13:09:34;4.03;;;3.47;;
12348;SDS011;5974;42.710;27.258;2023-08-01T13:12:01;3.70;;;3.40;;
12348;SDS011;5974;42.710;27.258;2023-08-01T13:14:29;3.67;;;3.37;;
12348;SDS011;5974;42.710;27.258;2023-08-01T13:16:58;3.87;;;3.00;;
12348;SDS011;5974;42.710;27.258;2023-08-01T13:19:25;3.60;;;3.40;;
12348;SDS011;5974;42.710;27.258;2023-08-01T13:21:52;3.43;;;3.13;;
12348;SDS011;5974;42.710;27.258;2023-08-01T13:24:19;3.43;;;3.23;;
12348;SDS011;5974;42.710;27.258;2023-08-01T13:26:46;4.13;;;3.05;;
12348;SDS011;5974;42.710;27.258;2023-08-01T13:29:13;5.00;;;3.27;;
12348;SDS011;5974;42.710;27.258;2023-08-01T13:31:41;3.23;;;3.03;;
12348;SDS011;5974;42.710;27.258;2023-08-01T13:34:08;3.60;;;3.30;;
12348;SDS011;5974;42.710;27.258;2023-08-01T13:36:36;3.10;;;3.00;;
12348;SDS011;5974;42.710;27.258;2023-08-01T13:39:03;3.22;;;3.03;;
12348;SDS011;5974;42.710;27.258;2023-08-01T13:41:30;3.10;;;2.90;;
12348;SDS011;5974;42.710;27.258;2023-08-01T13:43:59;3.83;;;3.00;;
12348;SDS011;5974;42.710;27.258;2023-08-01T13:46:27;3.33;;;3.07;;
12348;SDS011;5974;42.710;27.258;2023-08-01T13:48:55;3.00;;;2.90;;
12348;SDS011;5974;42.710;27.258;2023-08-01T13:51:23;3.73;;;3.30;;
12348;SDS011;5974;42.710;27.258;2023-08-01T13:53:50;3.33;;;3.10;;
12348;SDS011;5974;42.710;27.258;2023-08-01T13:56:16;3.70;;;3.40;;
12348;SDS011;5974;42.710;27.258;2023-08-01T13:58:43;3.53;;;3.23;;
12348;SDS011;5974;42.710;27.258;2023-08-01T14:01:10;3.53;;;3.23;;
12348;SDS011;5974;42.710;27.258;2023-08-01T14:03:37;3.70;;;3.30;;
12348;SDS011;5974;42.710;27.258;2023-08-01T14:06:06;6.20;;;3.37;;
12348;SDS011;5974;42.710;27.258;2023-08-01T14:08:35;3.20;;;2.90;;
12348;SDS011;5974;42.710;27.258;2023-08-01T14:11:02;3.40;;;2.67;;
12348;SDS011;5974;42.710;27.258;2023-08-01T14:13:31;4.50;;;3.03;;
12348;SDS011;5974;42.710;27.258;2023-08-01T14:15:58;3.30;;;3.10;;
12348;SDS011;5974;42.710;27.258;2023-08-01T14:18:25;3.33;;;3.13;;
12348;SDS011;5974;42.710;27.258;2023-08-01T14:20:51;3.40;;;3.20;;
12348;SDS011;5974;42.710;27.258;2023-08-01T14:23:21;3.40;;;3.20;;
12348;SDS011;5974;42.710;27.258;2023-08-01T14:25:48;3.23;;;3.03;;
12348;SDS011;5974;42.710;27.258;2023-08-01T14:28:15;3.37;;;3.07;;
12348;SDS011;5974;42.710;27.258;2023-08-01T14:30:42;3.53;;;3.20;;
12348;SDS011;5974;42.710;27.258;2023-08-01T14:33:09;3.20;;;3.00;;
12348;SDS011;5974;42.710;27.258;2023-08-01T14:35:36;3.10;;;2.90;;
12348;SDS011;5974;42.710;27.258;2023-08-01T14:38:03;5.77;;;3.40;;
12348;SDS011;5974;42.710;27.258;2023-08-01T14:40:32;5.50;;;3.47;;
12348;SDS011;5974;42.710;27.258;2023-08-01T14:43:00;3.40;;;3.20;;
12348;SDS011;5974;42.710;27.258;2023-08-01T14:45:27;3.20;;;3.00;;
12348;SDS011;5974;42.710;27.258;2023-08-01T14:47:54;3.10;;;2.90;;